North Branch, New York
Current Conditions -  °F | °C
As of 4:15 AM on Wednesday 28 Jan 2015 (Local Time) from KMSV Reporting Station
Few Clouds Few Clouds  
Wind Chill: -10°   Ceiling: Unl
Heat Index:   Visibility: 10mi
Dew Point: -4°   Wind: 18mph
Humidity: 57%   Direction: 310°NW
Pressure: 29.85"   Gusts: 24mph
Location:  41.81°N, 74.99°W
Report Text: KMSV 280915Z AUTO 31016G21KT 10SM FEW090 M13/M20 A2985 RMK AO1
Loading
Personal Weather Stations






























Interactive Weather Map New forecast layout! Learn more

10-Day Weather Forecast

Advertisements
Track Severe Weather on mobile